sensor_id;sensor_type;location;lat;lon;timestamp;pressure;altitude;pressure_sealevel;temperature;humidity
69784;BME280;57054;51.978;4.498;2022-08-01T00:02:27;101722.75;;;19.54;81.15
69784;BME280;57054;51.978;4.498;2022-08-01T00:04:54;101725.50;;;19.52;81.09
69784;BME280;57054;51.978;4.498;2022-08-01T00:07:19;101724.66;;;19.52;81.08
69784;BME280;57054;51.978;4.498;2022-08-01T00:09:45;101728.16;;;19.52;81.08
69784;BME280;57054;51.978;4.498;2022-08-01T00:12:10;101729.97;;;19.52;81.14
69784;BME280;57054;51.978;4.498;2022-08-01T00:14:35;101731.75;;;19.51;80.96
69784;BME280;57054;51.978;4.498;2022-08-01T00:17:01;101731.84;;;19.50;81.23
69784;BME280;57054;51.978;4.498;2022-08-01T00:19:26;101736.22;;;19.51;81.59
69784;BME280;57054;51.978;4.498;2022-08-01T00:21:52;101738.88;;;19.51;81.63
69784;BME280;57054;51.978;4.498;2022-08-01T00:24:17;101737.16;;;19.50;81.88
69784;BME280;57054;51.978;4.498;2022-08-01T00:26:43;101744.28;;;19.49;81.39
69784;BME280;57054;51.978;4.498;2022-08-01T00:29:08;101733.75;;;19.48;81.83
69784;BME280;57054;51.978;4.498;2022-08-01T00:31:33;101739.94;;;19.48;81.61
69784;BME280;57054;51.978;4.498;2022-08-01T00:33:59;101732.91;;;19.47;81.62
69784;BME280;57054;51.978;4.498;2022-08-01T00:36:24;101736.50;;;19.46;81.92
69784;BME280;57054;51.978;4.498;2022-08-01T00:38:49;101737.38;;;19.47;81.81
69784;BME280;57054;51.978;4.498;2022-08-01T00:41:15;101742.78;;;19.45;81.55
69784;BME280;57054;51.978;4.498;2022-08-01T00:43:40;101737.47;;;19.45;82.16
69784;BME280;57054;51.978;4.498;2022-08-01T00:46:06;101738.31;;;19.46;82.08
69784;BME280;57054;51.978;4.498;2022-08-01T00:48:31;101727.78;;;19.44;82.20
69784;BME280;57054;51.978;4.498;2022-08-01T00:50:57;101740.22;;;19.44;81.51
69784;BME280;57054;51.978;4.498;2022-08-01T00:53:22;101737.56;;;19.44;80.98
69784;BME280;57054;51.978;4.498;2022-08-01T00:55:48;101735.75;;;19.44;81.20
69784;BME280;57054;51.978;4.498;2022-08-01T00:58:14;101734.91;;;19.44;80.86
69784;BME280;57054;51.978;4.498;2022-08-01T01:00:39;101729.69;;;19.42;80.84
69784;BME280;57054;51.978;4.498;2022-08-01T01:03:05;101736.81;;;19.42;80.94
69784;BME280;57054;51.978;4.498;2022-08-01T01:05:35;101728.84;;;19.42;81.01
69784;BME280;57054;51.978;4.498;2022-08-01T01:08:08;101731.50;;;19.42;81.24
69784;BME280;57054;51.978;4.498;2022-08-01T01:10:43;101731.50;;;19.42;81.38
69784;BME280;57054;51.978;4.498;2022-08-01T01:13:25;101717.38;;;19.41;81.60
69784;BME280;57054;51.978;4.498;2022-08-01T01:16:05;101716.50;;;19.41;81.37
69784;BME280;57054;51.978;4.498;2022-08-01T01:18:38;101725.44;;;19.40;81.26
69784;BME280;57054;51.978;4.498;2022-08-01T01:23:46;101722.03;;;19.37;81.26
69784;BME280;57054;51.978;4.498;2022-08-01T01:26:37;101722.97;;;19.36;81.44
69784;BME280;57054;51.978;4.498;2022-08-01T01:29:17;101725.63;;;19.36;81.45
69784;BME280;57054;51.978;4.498;2022-08-01T01:32:06;101727.44;;;19.36;81.66
69784;BME280;57054;51.978;4.498;2022-08-01T01:34:36;101722.22;;;19.34;81.42
69784;BME280;57054;51.978;4.498;2022-08-01T01:37:04;101718.72;;;19.34;81.62
69784;BME280;57054;51.978;4.498;2022-08-01T01:39:32;101729.34;;;19.34;81.67
69784;BME280;57054;51.978;4.498;2022-08-01T01:41:59;101727.63;;;19.33;81.97
69784;BME280;57054;51.978;4.498;2022-08-01T01:44:27;101732.06;;;19.32;81.93
69784;BME280;57054;51.978;4.498;2022-08-01T01:46:54;101726.78;;;19.32;82.26
69784;BME280;57054;51.978;4.498;2022-08-01T01:49:24;101734.75;;;19.32;82.82
69784;BME280;57054;51.978;4.498;2022-08-01T01:51:51;101730.38;;;19.31;83.16
69784;BME280;57054;51.978;4.498;2022-08-01T01:54:19;101738.41;;;19.30;83.21
69784;BME280;57054;51.978;4.498;2022-08-01T01:56:45;101730.47;;;19.30;83.22
69784;BME280;57054;51.978;4.498;2022-08-01T01:59:15;101734.06;;;19.29;83.79
69784;BME280;57054;51.978;4.498;2022-08-01T02:01:42;101735.09;;;19.26;83.37
69784;BME280;57054;51.978;4.498;2022-08-01T02:04:08;101730.75;;;19.25;83.66
69784;BME280;57054;51.978;4.498;2022-08-01T02:06:34;101731.69;;;19.24;83.60
69784;BME280;57054;51.978;4.498;2022-08-01T02:09:02;101732.56;;;19.25;83.82
69784;BME280;57054;51.978;4.498;2022-08-01T02:11:29;101741.47;;;19.24;83.89
69784;BME280;57054;51.978;4.498;2022-08-01T02:14:01;101736.16;;;19.24;84.05
69784;BME280;57054;51.978;4.498;2022-08-01T02:16:31;101737.09;;;19.23;84.08
69784;BME280;57054;51.978;4.498;2022-08-01T02:18:58;101738.91;;;19.22;84.36
69784;BME280;57054;51.978;4.498;2022-08-01T02:21:32;101738.91;;;19.22;84.15
69784;BME280;57054;51.978;4.498;2022-08-01T02:26:50;101742.53;;;19.21;83.93
69784;BME280;57054;51.978;4.498;2022-08-01T02:29:22;101741.66;;;19.21;83.47
69784;BME280;57054;51.978;4.498;2022-08-01T02:31:51;101742.53;;;19.21;83.85
69784;BME280;57054;51.978;4.498;2022-08-01T02:34:20;101739.09;;;19.19;83.76
69784;BME280;57054;51.978;4.498;2022-08-01T02:36:46;101739.09;;;19.19;84.18
69784;BME280;57054;51.978;4.498;2022-08-01T02:39:15;101738.25;;;19.18;84.13
69784;BME280;57054;51.978;4.498;2022-08-01T02:41:47;101745.38;;;19.18;84.09
69784;BME280;57054;51.978;4.498;2022-08-01T02:44:38;101742.72;;;19.18;83.99
69784;BME280;57054;51.978;4.498;2022-08-01T02:47:03;101740.16;;;19.16;84.05
69784;BME280;57054;51.978;4.498;2022-08-01T02:49:31;101734.84;;;19.16;84.14
69784;BME280;57054;51.978;4.498;2022-08-01T02:51:59;101734.00;;;19.16;84.36
69784;BME280;57054;51.978;4.498;2022-08-01T02:54:26;101735.78;;;19.15;84.44
69784;BME280;57054;51.978;4.498;2022-08-01T02:56:53;101740.34;;;19.13;84.29
69784;BME280;57054;51.978;4.498;2022-08-01T02:59:22;101739.50;;;19.13;83.95
69784;BME280;57054;51.978;4.498;2022-08-01T03:01:52;101743.97;;;19.12;83.69
69784;BME280;57054;51.978;4.498;2022-08-01T03:04:19;101741.41;;;19.11;83.24
69784;BME280;57054;51.978;4.498;2022-08-01T03:06:45;101738.66;;;19.12;83.19
69784;BME280;57054;51.978;4.498;2022-08-01T03:09:12;101745.78;;;19.12;83.45
69784;BME280;57054;51.978;4.498;2022-08-01T03:11:40;101744.81;;;19.13;83.68
69784;BME280;57054;51.978;4.498;2022-08-01T03:14:08;101744.97;;;19.10;82.47
69784;BME280;57054;51.978;4.498;2022-08-01T03:16:35;101745.94;;;19.09;82.29
69784;BME280;57054;51.978;4.498;2022-08-01T03:19:03;101747.63;;;19.10;82.00
69784;BME280;57054;51.978;4.498;2022-08-01T03:21:30;101752.94;;;19.10;81.63
69784;BME280;57054;51.978;4.498;2022-08-01T03:23:57;101754.75;;;19.09;81.78
69784;BME280;57054;51.978;4.498;2022-08-01T03:26:29;101752.09;;;19.09;81.62
69784;BME280;57054;51.978;4.498;2022-08-01T03:28:59;101746.78;;;19.09;81.49
69784;BME280;57054;51.978;4.498;2022-08-01T03:31:27;101745.94;;;19.09;81.68
69784;BME280;57054;51.978;4.498;2022-08-01T03:33:54;101751.25;;;19.09;81.83
69784;BME280;57054;51.978;4.498;2022-08-01T03:36:25;101747.75;;;19.08;81.79
69784;BME280;57054;51.978;4.498;2022-08-01T03:38:53;101745.94;;;19.09;82.41
69784;BME280;57054;51.978;4.498;2022-08-01T03:41:23;101757.50;;;19.08;82.80
69784;BME280;57054;51.978;4.498;2022-08-01T03:44:00;101756.66;;;19.07;83.02
69784;BME280;57054;51.978;4.498;2022-08-01T03:46:32;101757.59;;;19.06;83.24
69784;BME280;57054;51.978;4.498;2022-08-01T03:49:00;101752.41;;;19.05;82.79
69784;BME280;57054;51.978;4.498;2022-08-01T03:51:29;101749.84;;;19.03;82.20
69784;BME280;57054;51.978;4.498;2022-08-01T03:53:58;101756.94;;;19.03;81.69
69784;BME280;57054;51.978;4.498;2022-08-01T03:56:25;101745.47;;;19.02;81.35
69784;BME280;57054;51.978;4.498;2022-08-01T03:58:51;101750.78;;;19.02;81.49
69784;BME280;57054;51.978;4.498;2022-08-01T04:01:17;101750.78;;;19.02;81.38
69784;BME280;57054;51.978;4.498;2022-08-01T04:03:44;101748.97;;;19.03;81.70
69784;BME280;57054;51.978;4.498;2022-08-01T04:06:09;101748.13;;;19.02;81.94
69784;BME280;57054;51.978;4.498;2022-08-01T04:08:39;101742.81;;;19.02;81.60
69784;BME280;57054;51.978;4.498;2022-08-01T04:11:05;101742.91;;;19.01;81.42
69784;BME280;57054;51.978;4.498;2022-08-01T04:13:32;101748.22;;;19.01;81.51
69784;BME280;57054;51.978;4.498;2022-08-01T04:15:58;101751.84;;;18.99;81.65
69784;BME280;57054;51.978;4.498;2022-08-01T04:18:23;101758.06;;;18.98;81.90
69784;BME280;57054;51.978;4.498;2022-08-01T04:20:49;101759.03;;;18.97;81.59
69784;BME280;57054;51.978;4.498;2022-08-01T04:23:16;101758.06;;;18.98;81.81
69784;BME280;57054;51.978;4.498;2022-08-01T04:25:44;101756.47;;;18.96;81.39
69784;BME280;57054;51.978;4.498;2022-08-01T04:28:12;101755.59;;;18.95;80.96
69784;BME280;57054;51.978;4.498;2022-08-01T04:30:42;101759.22;;;18.94;80.81
69784;BME280;57054;51.978;4.498;2022-08-01T04:33:11;101768.03;;;18.95;80.78
69784;BME280;57054;51.978;4.498;2022-08-01T04:35:43;101756.66;;;18.93;80.71
69784;BME280;57054;51.978;4.498;2022-08-01T04:38:11;101760.16;;;18.93;80.67
69784;BME280;57054;51.978;4.498;2022-08-01T04:40:40;101769.00;;;18.94;80.71
69784;BME280;57054;51.978;4.498;2022-08-01T04:43:06;101762.81;;;18.93;80.68
69784;BME280;57054;51.978;4.498;2022-08-01T04:45:32;101763.69;;;18.94;80.58
69784;BME280;57054;51.978;4.498;2022-08-01T04:47:58;101765.47;;;18.93;80.88
69784;BME280;57054;51.978;4.498;2022-08-01T04:50:25;101762.81;;;18.93;80.84
69784;BME280;57054;51.978;4.498;2022-08-01T04:52:50;101766.44;;;18.92;80.99
69784;BME280;57054;51.978;4.498;2022-08-01T04:55:16;101771.66;;;18.94;81.26
69784;BME280;57054;51.978;4.498;2022-08-01T04:57:44;101773.41;;;18.93;81.42
69784;BME280;57054;51.978;4.498;2022-08-01T05:00:10;101776.06;;;18.93;81.59
69784;BME280;57054;51.978;4.498;2022-08-01T05:02:36;101772.50;;;18.94;82.10
69784;BME280;57054;51.978;4.498;2022-08-01T05:05:01;101772.59;;;18.93;81.90
69784;BME280;57054;51.978;4.498;2022-08-01T05:07:27;101770.78;;;18.93;81.86
69784;BME280;57054;51.978;4.498;2022-08-01T05:09:52;101776.06;;;18.93;82.12
69784;BME280;57054;51.978;4.498;2022-08-01T05:12:18;101773.41;;;18.93;82.71
69784;BME280;57054;51.978;4.498;2022-08-01T05:14:43;101774.31;;;18.94;82.38
69784;BME280;57054;51.978;4.498;2022-08-01T05:17:09;101772.50;;;18.94;82.11
69784;BME280;57054;51.978;4.498;2022-08-01T05:19:37;101771.66;;;18.94;82.04
69784;BME280;57054;51.978;4.498;2022-08-01T05:22:07;101772.59;;;18.93;81.48
69784;BME280;57054;51.978;4.498;2022-08-01T05:24:38;101772.59;;;18.93;81.06
69784;BME280;57054;51.978;4.498;2022-08-01T05:27:04;101770.78;;;18.93;80.68
69784;BME280;57054;51.978;4.498;2022-08-01T05:29:30;101763.69;;;18.94;81.52
69784;BME280;57054;51.978;4.498;2022-08-01T05:31:56;101769.84;;;18.94;82.16
69784;BME280;57054;51.978;4.498;2022-08-01T05:34:22;101767.19;;;18.94;82.22
69784;BME280;57054;51.978;4.498;2022-08-01T05:36:48;101765.47;;;18.93;81.50
69784;BME280;57054;51.978;4.498;2022-08-01T05:39:14;101771.75;;;18.92;81.57
69784;BME280;57054;51.978;4.498;2022-08-01T05:41:40;101778.66;;;18.95;82.08
69784;BME280;57054;51.978;4.498;2022-08-01T05:44:06;101782.25;;;18.94;82.78
69784;BME280;57054;51.978;4.498;2022-08-01T05:46:32;101789.25;;;18.95;83.10
69784;BME280;57054;51.978;4.498;2022-08-01T05:48:58;101775.16;;;18.94;83.69
69784;BME280;57054;51.978;4.498;2022-08-01T05:51:24;101775.16;;;18.94;83.72
69784;BME280;57054;51.978;4.498;2022-08-01T05:53:50;101783.94;;;18.95;84.19
69784;BME280;57054;51.978;4.498;2022-08-01T05:56:15;101776.94;;;18.94;84.50
69784;BME280;57054;51.978;4.498;2022-08-01T05:58:41;101781.38;;;18.93;84.55
69784;BME280;57054;51.978;4.498;2022-08-01T06:01:06;101788.41;;;18.94;84.73
69784;BME280;57054;51.978;4.498;2022-08-01T06:03:32;101784.91;;;18.94;84.89
69784;BME280;57054;51.978;4.498;2022-08-01T06:05:59;101791.16;;;18.93;85.03
69784;BME280;57054;51.978;4.498;2022-08-01T06:08:24;101796.47;;;18.93;85.13
69784;BME280;57054;51.978;4.498;2022-08-01T06:10:50;101803.50;;;18.94;85.53
69784;BME280;57054;51.978;4.498;2022-08-01T06:13:15;101801.78;;;18.93;85.33
69784;BME280;57054;51.978;4.498;2022-08-01T06:15:40;101798.28;;;18.92;85.57
69784;BME280;57054;51.978;4.498;2022-08-01T06:18:06;101807.16;;;18.91;85.67
69784;BME280;57054;51.978;4.498;2022-08-01T06:20:31;101802.75;;;18.92;86.01
69784;BME280;57054;51.978;4.498;2022-08-01T06:22:57;101805.41;;;18.92;86.09
69784;BME280;57054;51.978;4.498;2022-08-01T06:25:22;101810.69;;;18.92;86.30
69784;BME280;57054;51.978;4.498;2022-08-01T06:27:48;101810.69;;;18.92;86.58
69784;BME280;57054;51.978;4.498;2022-08-01T06:30:14;101815.13;;;18.91;86.93
69784;BME280;57054;51.978;4.498;2022-08-01T06:32:40;101818.75;;;18.90;87.11
69784;BME280;57054;51.978;4.498;2022-08-01T06:35:06;101814.38;;;18.89;87.04
69784;BME280;57054;51.978;4.498;2022-08-01T06:37:32;101812.69;;;18.88;87.04
69784;BME280;57054;51.978;4.498;2022-08-01T06:40:05;101826.88;;;18.87;87.24
69784;BME280;57054;51.978;4.498;2022-08-01T06:42:31;101832.28;;;18.86;87.56
69784;BME280;57054;51.978;4.498;2022-08-01T06:45:02;101831.44;;;18.85;87.54
69784;BME280;57054;51.978;4.498;2022-08-01T06:47:27;101835.91;;;18.85;87.62
69784;BME280;57054;51.978;4.498;2022-08-01T06:49:52;101835.03;;;18.84;87.62
69784;BME280;57054;51.978;4.498;2022-08-01T06:52:18;101833.25;;;18.85;87.67
69784;BME280;57054;51.978;4.498;2022-08-01T06:54:43;101840.34;;;18.84;87.60
69784;BME280;57054;51.978;4.498;2022-08-01T06:57:09;101836.00;;;18.83;87.70
69784;BME280;57054;51.978;4.498;2022-08-01T06:59:34;101842.28;;;18.80;87.72
69784;BME280;57054;51.978;4.498;2022-08-01T07:02:02;101838.03;;;18.78;88.32
69784;BME280;57054;51.978;4.498;2022-08-01T07:04:28;101844.25;;;18.77;88.33
69784;BME280;57054;51.978;4.498;2022-08-01T07:06:53;101847.88;;;18.76;88.13
69784;BME280;57054;51.978;4.498;2022-08-01T07:09:19;101853.28;;;18.74;87.95
69784;BME280;57054;51.978;4.498;2022-08-01T07:11:44;101863.22;;;18.71;87.62
69784;BME280;57054;51.978;4.498;2022-08-01T07:14:09;101852.69;;;18.69;87.49
69784;BME280;57054;51.978;4.498;2022-08-01T07:16:35;101859.78;;;18.69;87.35
69784;BME280;57054;51.978;4.498;2022-08-01T07:19:00;101858.06;;;18.68;87.22
69784;BME280;57054;51.978;4.498;2022-08-01T07:21:26;101859.03;;;18.67;87.19
69784;BME280;57054;51.978;4.498;2022-08-01T07:23:51;101858.28;;;18.65;87.35
69784;BME280;57054;51.978;4.498;2022-08-01T07:26:16;101867.16;;;18.64;87.49
69784;BME280;57054;51.978;4.498;2022-08-01T07:28:42;101873.53;;;18.61;87.34
69784;BME280;57054;51.978;4.498;2022-08-01T07:31:08;101870.94;;;18.59;87.24
69784;BME280;57054;51.978;4.498;2022-08-01T07:33:33;101878.91;;;18.59;87.81
69784;BME280;57054;51.978;4.498;2022-08-01T07:35:59;101880.97;;;18.54;88.02
69784;BME280;57054;51.978;4.498;2022-08-01T07:38:24;101887.13;;;18.55;88.02
69784;BME280;57054;51.978;4.498;2022-08-01T07:40:49;101880.97;;;18.54;87.77
69784;BME280;57054;51.978;4.498;2022-08-01T07:43:16;101878.31;;;18.54;87.86
69784;BME280;57054;51.978;4.498;2022-08-01T07:45:41;101888.16;;;18.52;87.76
69784;BME280;57054;51.978;4.498;2022-08-01T07:48:07;101888.09;;;18.54;87.52
69784;BME280;57054;51.978;4.498;2022-08-01T07:50:33;101889.00;;;18.53;87.74
69784;BME280;57054;51.978;4.498;2022-08-01T07:52:58;101890.81;;;18.52;87.97
69784;BME280;57054;51.978;4.498;2022-08-01T07:55:24;101895.34;;;18.50;87.46
69784;BME280;57054;51.978;4.498;2022-08-01T07:57:50;101895.34;;;18.50;87.59
69784;BME280;57054;51.978;4.498;2022-08-01T08:00:16;101892.88;;;18.47;87.40
69784;BME280;57054;51.978;4.498;2022-08-01T08:02:42;101888.50;;;18.46;87.26
69784;BME280;57054;51.978;4.498;2022-08-01T08:05:07;101888.78;;;18.41;87.16
69784;BME280;57054;51.978;4.498;2022-08-01T08:07:33;101890.59;;;18.41;87.00
69784;BME280;57054;51.978;4.498;2022-08-01T08:09:58;101893.72;;;18.32;87.85
69784;BME280;57054;51.978;4.498;2022-08-01T08:12:24;101897.34;;;18.31;87.94
69784;BME280;57054;51.978;4.498;2022-08-01T08:14:49;101891.00;;;18.33;87.86
69784;BME280;57054;51.978;4.498;2022-08-01T08:17:15;101904.00;;;18.38;88.13
69784;BME280;57054;51.978;4.498;2022-08-01T08:19:40;101899.47;;;18.40;88.11
69784;BME280;57054;51.978;4.498;2022-08-01T08:22:07;101904.84;;;18.38;88.16
69784;BME280;57054;51.978;4.498;2022-08-01T08:24:33;101913.50;;;18.42;88.01
69784;BME280;57054;51.978;4.498;2022-08-01T08:27:00;101909.81;;;18.45;87.76
69784;BME280;57054;51.978;4.498;2022-08-01T08:29:27;101918.47;;;18.48;87.68
69784;BME280;57054;51.978;4.498;2022-08-01T08:31:53;101918.47;;;18.48;87.51
69784;BME280;57054;51.978;4.498;2022-08-01T08:34:19;101909.47;;;18.51;87.16
69784;BME280;57054;51.978;4.498;2022-08-01T08:36:45;101914.69;;;18.52;86.90
69784;BME280;57054;51.978;4.498;2022-08-01T08:39:10;101921.69;;;18.53;86.74
69784;BME280;57054;51.978;4.498;2022-08-01T08:41:36;101915.69;;;18.50;85.90
69784;BME280;57054;51.978;4.498;2022-08-01T08:44:03;101915.81;;;18.48;85.25
69784;BME280;57054;51.978;4.498;2022-08-01T08:46:29;101906.81;;;18.51;85.45
69784;BME280;57054;51.978;4.498;2022-08-01T08:48:58;101923.50;;;18.53;85.48
69784;BME280;57054;51.978;4.498;2022-08-01T08:51:26;101926.91;;;18.55;85.45
69784;BME280;57054;51.978;4.498;2022-08-01T08:53:54;101923.13;;;18.59;85.01
69784;BME280;57054;51.978;4.498;2022-08-01T08:56:20;101916.13;;;18.58;85.23
69784;BME280;57054;51.978;4.498;2022-08-01T08:58:46;101926.56;;;18.61;84.88
69784;BME280;57054;51.978;4.498;2022-08-01T09:01:12;101929.91;;;18.65;84.77
69784;BME280;57054;51.978;4.498;2022-08-01T09:03:38;101933.31;;;18.67;84.70
69784;BME280;57054;51.978;4.498;2022-08-01T09:06:04;101930.59;;;18.68;84.17
69784;BME280;57054;51.978;4.498;2022-08-01T09:08:30;101923.56;;;18.67;83.40
69784;BME280;57054;51.978;4.498;2022-08-01T09:10:55;101938.63;;;18.67;83.50
69784;BME280;57054;51.978;4.498;2022-08-01T09:13:21;101942.22;;;18.66;83.31
69784;BME280;57054;51.978;4.498;2022-08-01T09:15:51;101943.75;;;18.70;83.38
69784;BME280;57054;51.978;4.498;2022-08-01T09:18:39;101940.25;;;18.69;82.54
69784;BME280;57054;51.978;4.498;2022-08-01T09:26:00;101938.25;;;18.73;81.95
69784;BME280;57054;51.978;4.498;2022-08-01T09:28:29;101943.66;;;18.71;82.08
69784;BME280;57054;51.978;4.498;2022-08-01T09:30:56;101947.16;;;18.72;81.08
69784;BME280;57054;51.978;4.498;2022-08-01T09:33:21;101949.72;;;18.73;81.21
69784;BME280;57054;51.978;4.498;2022-08-01T09:35:54;101943.41;;;18.76;81.05
69784;BME280;57054;51.978;4.498;2022-08-01T09:38:22;101946.91;;;18.76;81.04
69784;BME280;57054;51.978;4.498;2022-08-01T09:40:59;101945.00;;;18.78;81.32
69784;BME280;57054;51.978;4.498;2022-08-01T09:43:27;101949.41;;;18.79;80.82
69784;BME280;57054;51.978;4.498;2022-08-01T09:45:53;101963.38;;;18.83;80.33
69784;BME280;57054;51.978;4.498;2022-08-01T09:48:20;101959.84;;;18.83;80.27
69784;BME280;57054;51.978;4.498;2022-08-01T09:50:48;101959.84;;;18.83;79.95
69784;BME280;57054;51.978;4.498;2022-08-01T09:53:14;101965.06;;;18.84;79.50
69784;BME280;57054;51.978;4.498;2022-08-01T09:55:41;101960.63;;;18.85;79.47
69784;BME280;57054;51.978;4.498;2022-08-01T09:58:07;101956.94;;;18.87;79.10
69784;BME280;57054;51.978;4.498;2022-08-01T10:00:34;101957.63;;;18.91;79.98
69784;BME280;57054;51.978;4.498;2022-08-01T10:03:01;101954.69;;;18.95;80.04
69784;BME280;57054;51.978;4.498;2022-08-01T10:05:43;101959.81;;;18.98;79.11
69784;BME280;57054;51.978;4.498;2022-08-01T10:08:09;101964.88;;;19.03;79.31
69784;BME280;57054;51.978;4.498;2022-08-01T10:10:35;101961.16;;;19.06;78.76
69784;BME280;57054;51.978;4.498;2022-08-01T10:13:01;101949.53;;;19.08;78.59
69784;BME280;57054;51.978;4.498;2022-08-01T10:15:28;101945.81;;;19.11;78.37
69784;BME280;57054;51.978;4.498;2022-08-01T10:17:56;101954.56;;;19.13;76.90
69784;BME280;57054;51.978;4.498;2022-08-01T10:20:30;101947.53;;;19.12;76.03
69784;BME280;57054;51.978;4.498;2022-08-01T10:22:59;101949.25;;;19.13;76.11
69784;BME280;57054;51.978;4.498;2022-08-01T10:25:27;101948.47;;;19.11;75.06
69784;BME280;57054;51.978;4.498;2022-08-01T10:27:54;101958.06;;;19.13;75.13
69784;BME280;57054;51.978;4.498;2022-08-01T10:30:23;101954.47;;;19.14;75.71
69784;BME280;57054;51.978;4.498;2022-08-01T10:32:50;101949.06;;;19.16;75.96
69784;BME280;57054;51.978;4.498;2022-08-01T10:35:18;101953.41;;;19.17;75.95
69784;BME280;57054;51.978;4.498;2022-08-01T10:37:45;101954.28;;;19.17;75.94
69784;BME280;57054;51.978;4.498;2022-08-01T10:40:14;101956.06;;;19.17;75.72
69784;BME280;57054;51.978;4.498;2022-08-01T10:42:44;101954.28;;;19.17;76.40
69784;BME280;57054;51.978;4.498;2022-08-01T10:45:14;101962.13;;;19.19;75.42
69784;BME280;57054;51.978;4.498;2022-08-01T10:47:53;101962.81;;;19.23;75.52
69784;BME280;57054;51.978;4.498;2022-08-01T10:50:42;101962.72;;;19.24;75.51
69784;BME280;57054;51.978;4.498;2022-08-01T10:53:15;101960.94;;;19.25;74.25
69784;BME280;57054;51.978;4.498;2022-08-01T11:01:23;101970.59;;;19.26;73.88
69784;BME280;57054;51.978;4.498;2022-08-01T11:04:04;101977.56;;;19.28;73.92
69784;BME280;57054;51.978;4.498;2022-08-01T11:09:01;101970.63;;;19.40;74.01
69784;BME280;57054;51.978;4.498;2022-08-01T11:11:27;101970.38;;;19.45;72.23
69784;BME280;57054;51.978;4.498;2022-08-01T11:16:33;101973.50;;;19.51;72.45
69784;BME280;57054;51.978;4.498;2022-08-01T11:18:59;101965.34;;;19.54;72.08
69784;BME280;57054;51.978;4.498;2022-08-01T11:27:16;101979.38;;;19.56;70.15
69784;BME280;57054;51.978;4.498;2022-08-01T11:29:41;101968.75;;;19.56;70.32
69784;BME280;57054;51.978;4.498;2022-08-01T11:32:26;101966.94;;;19.57;70.33
69784;BME280;57054;51.978;4.498;2022-08-01T11:34:53;101969.44;;;19.60;70.69
69784;BME280;57054;51.978;4.498;2022-08-01T11:37:27;101967.63;;;19.61;68.20
69784;BME280;57054;51.978;4.498;2022-08-01T11:40:45;101967.63;;;19.61;68.80
69784;BME280;57054;51.978;4.498;2022-08-01T11:48:21;101969.72;;;19.70;65.70
69784;BME280;57054;51.978;4.498;2022-08-01T11:50:46;101969.63;;;19.71;65.53
69784;BME280;57054;51.978;4.498;2022-08-01T11:53:12;101967.75;;;19.73;64.85
69784;BME280;57054;51.978;4.498;2022-08-01T11:55:46;101974.69;;;19.76;64.98
69784;BME280;57054;51.978;4.498;2022-08-01T11:58:12;101963.97;;;19.78;66.06
69784;BME280;57054;51.978;4.498;2022-08-01T12:00:37;101973.66;;;19.79;66.18
69784;BME280;57054;51.978;4.498;2022-08-01T12:03:05;101977.06;;;19.81;64.95
69784;BME280;57054;51.978;4.498;2022-08-01T12:05:33;101970.81;;;19.82;65.15
69784;BME280;57054;51.978;4.498;2022-08-01T12:08:00;101969.97;;;19.81;64.22
69784;BME280;57054;51.978;4.498;2022-08-01T12:10:28;101971.66;;;19.82;62.52
69784;BME280;57054;51.978;4.498;2022-08-01T12:13:01;101972.41;;;19.84;63.27
69784;BME280;57054;51.978;4.498;2022-08-01T12:15:37;101972.41;;;19.84;62.80
69784;BME280;57054;51.978;4.498;2022-08-01T12:18:06;101979.53;;;19.84;62.57
69784;BME280;57054;51.978;4.498;2022-08-01T12:20:37;101986.66;;;19.83;61.80
69784;BME280;57054;51.978;4.498;2022-08-01T12:23:08;101989.31;;;19.83;62.42
69784;BME280;57054;51.978;4.498;2022-08-01T12:25:34;101984.84;;;19.84;61.87
69784;BME280;57054;51.978;4.498;2022-08-01T12:28:02;101974.22;;;19.84;62.08
69784;BME280;57054;51.978;4.498;2022-08-01T12:30:28;101971.47;;;19.85;61.52
69784;BME280;57054;51.978;4.498;2022-08-01T12:32:56;101973.06;;;19.88;61.34
69784;BME280;57054;51.978;4.498;2022-08-01T12:35:24;101973.75;;;19.91;61.56
69784;BME280;57054;51.978;4.498;2022-08-01T12:37:52;101974.63;;;19.92;61.74
69784;BME280;57054;51.978;4.498;2022-08-01T12:40:19;101966.72;;;19.90;61.66
69784;BME280;57054;51.978;4.498;2022-08-01T12:42:49;101975.56;;;19.91;62.23
69784;BME280;57054;51.978;4.498;2022-08-01T12:45:26;101972.06;;;19.90;61.54
69784;BME280;57054;51.978;4.498;2022-08-01T12:47:53;101973.66;;;19.93;60.38
69784;BME280;57054;51.978;4.498;2022-08-01T12:50:20;101968.41;;;19.91;59.96
69784;BME280;57054;51.978;4.498;2022-08-01T12:52:47;101977.16;;;19.93;60.05
69784;BME280;57054;51.978;4.498;2022-08-01T12:55:17;101982.59;;;19.92;59.47
69784;BME280;57054;51.978;4.498;2022-08-01T12:57:48;101970.91;;;19.94;60.02
69784;BME280;57054;51.978;4.498;2022-08-01T13:00:25;101984.09;;;19.96;60.27
69784;BME280;57054;51.978;4.498;2022-08-01T13:03:05;101976.13;;;19.96;61.47
69784;BME280;57054;51.978;4.498;2022-08-01T13:08:09;101976.03;;;19.98;60.48
69784;BME280;57054;51.978;4.498;2022-08-01T13:10:35;101978.56;;;19.99;58.86
69784;BME280;57054;51.978;4.498;2022-08-01T13:13:00;101962.75;;;19.98;59.12
69784;BME280;57054;51.978;4.498;2022-08-01T13:15:34;101975.81;;;20.01;61.06
69784;BME280;57054;51.978;4.498;2022-08-01T13:18:21;101973.16;;;20.01;59.93
69784;BME280;57054;51.978;4.498;2022-08-01T13:20:46;101966.72;;;20.05;58.90
69784;BME280;57054;51.978;4.498;2022-08-01T13:23:17;101961.19;;;20.08;58.79
69784;BME280;57054;51.978;4.498;2022-08-01T13:25:53;101971.72;;;20.09;57.81
69784;BME280;57054;51.978;4.498;2022-08-01T13:28:22;101965.66;;;20.07;58.18
69784;BME280;57054;51.978;4.498;2022-08-01T13:30:54;101962.06;;;20.08;57.78